Meath Environmental Platform

Observations for Trim Market St

Time AQI Temp °C Hum % Pres Pa CO μg/m³ H₂S μg/m³ NO μg/m³ NO₂ μg/m³ O₃ μg/m³ SO₂ μg/m³ PM1 μg/m³ PM2.5 μg/m³ PM10 μg/m³
Wednesday 26 August 2026
20:04 3 21.6 62 57,486 0 0 1.36 13.66 85.2 0 6.41 8.92 13.61
20:03 3 21.6 62 57,497 0 0 1.37 14.98 84.55 0 4.99 7.93 12.26
20:01 3 21.7 61 57,515 0 0 2.19 14.38 84.28 0 6.41 8.94 12.27
19:58 3 21.8 61 57,543 0 0 2.39 13.74 85.23 0 8.55 10.46 14.33
19:49 3 22.2 60 57,606 0 0 1.25 14.18 88.24 0 4.99 7.02 10.95
19:48 3 22.2 60 57,612 0 0 1.21 14.08 88.29 0 7.13 10.52 15.07
19:47 3 22.2 60 57,622 0 0 1.38 14.34 90.42 0 4.99 6.03 12.33
19:46 3 22.3 60 57,629 0 0 1.39 14.63 87.89 0 5.7 8.03 10.96
19:45 3 22.3 60 57,637 0 0 1.47 15.01 88.32 0 5.7 8.54 11.65
19:44 3 22.3 60 57,640 0 0 1.53 15.45 86.77 0 4.99 7.54 11.66
19:43 3 22.4 60 57,646 0 0 1.46 22.51 74.71 0 6.41 8.05 10.97
19:42 3 22.4 60 57,651 0 0 1.45 22.55 74.35 0 4.99 8.06 13.04
19:41 3 22.4 59 57,655 0 0 1.5 15.44 86.47 0 5.7 8.56 12.36
19:40 3 22.5 59 57,660 0 0 1.29 14.02 91.29 0 4.99 8.07 10.98
19:39 3 22.5 59 57,665 0 0 1.24 14.13 89.59 0 2.85 5.56 8.91
19:38 3 22.5 59 57,667 0 0 1.44 13.93 88.63 0 4.28 7.08 10.29
19:37 3 22.6 59 57,670 0 0 1.14 14.23 90.13 0 4.99 7.58 10.29
19:36 3 22.6 59 57,675 0 0 1.11 14.25 91.26 0 6.41 9.59 13.07
19:34 3 22.7 59 57,678 0 0 1.34 14.34 87.65 0 4.99 7.6 11
19:30 3 22.8 58 57,688 0 0 1.49 16.96 84.33 0 4.99 8.12 12.4